Time;durP1;ratioP1;P1;durP2;ratioP2;P2;SDS_P1;SDS_P2;PMS_P1;PMS_P2;Temp;Humidity;BMP_temperature;BMP_pressure;BME280_temperature;BME280_humidity;BME280_pressure;Samples;Min_cycle;Max_cycle;Signal;HPM_P1;HPM_P2
2022/11/24 00:01:08;;;;;;;12.38;4.05;;;;;;;7.44;100.00;100299.31;7381786;19;20010;-73
2022/11/24 00:03:39;;;;;;;23.05;4.75;;;;;;;7.44;100.00;100315.84;7376115;19;20046;-73
2022/11/24 00:06:12;;;;;;;19.75;4.35;;;;;;;7.52;100.00;100321.19;7377783;19;20130;-72
2022/11/24 00:08:45;;;;;;;16.15;4.50;;;;;;;7.49;100.00;100316.78;7376670;19;20513;-72
2022/11/24 00:11:17;;;;;;;14.40;3.78;;;;;;;7.41;100.00;100304.47;7379382;19;20020;-72
2022/11/24 00:13:48;;;;;;;15.52;4.40;;;;;;;7.36;100.00;100303.50;7378783;19;20014;-72
2022/11/24 00:16:24;;;;;;;14.00;4.55;;;;;;;7.36;100.00;100308.72;7380081;19;20033;-73
2022/11/24 00:18:58;;;;;;;17.35;4.00;;;;;;;7.41;100.00;100322.72;7376111;19;20010;-73
2022/11/24 00:21:28;;;;;;;;;;;;;;;7.45;100.00;100312.38;7378465;19;20026;-72
2022/11/24 00:24:00;;;;;;;9.23;3.75;;;;;;;7.45;100.00;100319.31;7374438;19;19919;-72
2022/11/24 00:26:36;;;;;;;15.85;4.38;;;;;;;7.51;100.00;100330.75;7371191;19;20025;-73
2022/11/24 00:29:09;;;;;;;24.08;4.80;;;;;;;7.51;100.00;100325.53;7374006;19;20558;-72
2022/11/24 00:31:46;;;;;;;16.10;3.22;;;;;;;7.52;100.00;100323.81;7379623;19;20014;-73
2022/11/24 00:34:16;;;;;;;16.80;4.38;;;;;;;7.51;100.00;100337.69;7377094;19;20011;-72
2022/11/24 00:36:46;;;;;;;12.80;3.45;;;;;;;7.44;100.00;100321.06;7378325;19;20082;-72
2022/11/24 00:39:18;;;;;;;14.40;5.07;;;;;;;7.41;100.00;100334.06;7374631;19;20542;-73
2022/11/24 00:41:48;;;;;;;15.07;4.32;;;;;;;7.38;100.00;100328.78;7379810;19;20503;-72
2022/11/24 00:44:19;;;;;;;11.60;3.40;;;;;;;7.27;100.00;100322.53;7375437;19;20102;-72
2022/11/24 00:46:51;;;;;;;16.13;3.70;;;;;;;7.23;100.00;100323.31;7377283;19;20365;-73
2022/11/24 00:49:21;;;;;;;16.25;4.13;;;;;;;7.18;100.00;100332.78;7378269;19;20046;-72
2022/11/24 00:51:52;;;;;;;12.30;3.70;;;;;;;7.19;100.00;100331.94;7373511;19;20017;-72
2022/11/24 00:54:21;;;;;;;16.08;3.75;;;;;;;7.17;100.00;100329.28;7368210;19;20037;-73
2022/11/24 00:56:52;;;;;;;17.65;4.05;;;;;;;7.14;100.00;100330.97;7374501;19;20026;-73
2022/11/24 00:59:23;;;;;;;20.48;5.05;;;;;;;7.14;100.00;100336.19;7377168;19;20022;-72
2022/11/24 01:01:57;;;;;;;13.85;3.33;;;;;;;7.16;100.00;100331.88;7376839;19;20011;-72
2022/11/24 01:04:27;;;;;;;15.57;3.55;;;;;;;7.23;100.00;100341.56;7376760;19;20023;-72
2022/11/24 01:06:57;;;;;;;16.25;3.45;;;;;;;7.22;100.00;100345.03;7372495;19;20267;-72
2022/11/24 01:09:28;;;;;;;12.07;4.28;;;;;;;7.25;100.00;100347.69;7372667;19;20025;-73
2022/11/24 01:12:05;;;;;;;16.05;3.67;;;;;;;7.26;100.00;100349.44;7371997;19;20018;-73
2022/11/24 01:14:37;;;;;;;17.05;4.47;;;;;;;7.27;100.00;100351.22;7376153;19;20014;-73
2022/11/24 01:17:10;;;;;;;11.45;3.10;;;;;;;7.21;100.00;100348.50;7372515;19;20015;-72
2022/11/24 01:19:40;;;;;;;13.85;2.95;;;;;;;7.27;100.00;100351.22;7374231;19;20011;-72
2022/11/24 01:22:12;;;;;;;14.50;3.25;;;;;;;7.27;100.00;100351.22;7373707;19;20018;-72
2022/11/24 01:24:44;;;;;;;6.82;2.28;;;;;;;7.26;100.00;100346.84;7372378;19;20832;-72
2022/11/24 01:27:14;;;;;;;9.40;3.08;;;;;;;7.31;100.00;100353.00;7371365;19;20039;-72
2022/11/24 01:29:47;;;;;;;14.45;3.10;;;;;;;7.27;100.00;100355.53;7373170;19;20021;-72
2022/11/24 01:32:20;;;;;;;8.57;2.28;;;;;;;7.24;100.00;100351.16;7370298;19;20430;-72
2022/11/24 01:34:52;;;;;;;10.52;2.80;;;;;;;7.20;100.00;100364.97;7372573;19;20006;-72
2022/11/24 01:37:22;;;;;;;13.07;3.00;;;;;;;7.27;100.00;100372.06;7375814;19;20507;-72
2022/11/24 01:39:52;;;;;;;17.58;3.50;;;;;;;7.41;100.00;100386.22;7373447;19;20014;-72
2022/11/24 01:42:23;;;;;;;9.27;3.28;;;;;;;7.36;100.00;100385.25;7376660;19;20010;-72
2022/11/24 01:45:32;;;;;;;15.93;3.20;;;;;;;7.36;100.00;100371.34;7371670;19;20376;-71
2022/11/24 01:48:12;;;;;;;11.32;3.13;;;;;;;7.39;100.00;100382.72;7372166;19;20014;-71
2022/11/24 01:50:45;;;;;;;9.38;2.83;;;;;;;7.40;100.00;100394.03;7373151;19;20010;-72
2022/11/24 01:53:18;;;;;;;16.30;3.50;;;;;;;7.45;100.00;100390.66;7370941;19;20011;-71
2022/11/24 01:55:54;;;;;;;10.55;2.53;;;;;;;7.47;100.00;100391.56;7375620;19;20015;-71
2022/11/24 01:58:33;;;;;;;12.90;3.58;;;;;;;7.45;100.00;100389.78;7373763;19;20104;-71
2022/11/24 02:01:06;;;;;;;19.52;4.65;;;;;;;7.41;100.00;100401.00;7376893;19;20021;-71
2022/11/24 02:03:43;;;;;;;10.93;3.53;;;;;;;7.42;100.00;100387.97;7374312;19;20030;-71
2022/11/24 02:06:15;;;;;;;17.48;3.60;;;;;;;7.38;100.00;100385.28;7381027;19;20010;-72
2022/11/24 02:08:51;;;;;;;;;;;;;;;7.29;100.00;100385.13;7381600;19;20014;-71
2022/11/24 02:11:24;;;;;;;13.95;3.08;;;;;;;7.35;100.00;100391.31;7381788;19;19914;-72
2022/11/24 02:13:55;;;;;;;11.57;3.10;;;;;;;7.29;100.00;100392.94;7381268;19;20013;-71
2022/11/24 02:16:25;;;;;;;12.38;2.85;;;;;;;7.38;100.00;100398.34;7379946;19;20483;-71
2022/11/24 02:18:58;;;;;;;10.55;3.28;;;;;;;7.36;100.00;100402.63;7380016;19;20074;-71
2022/11/24 02:21:28;;;;;;;8.48;2.63;;;;;;;7.27;100.00;100411.19;7383402;19;20018;-71
2022/11/24 02:24:14;;;;;;;8.57;2.85;;;;;;;7.27;100.00;100416.41;7379095;19;20021;-71
2022/11/24 02:26:48;;;;;;;12.27;2.97;;;;;;;7.24;100.00;100423.31;7365698;19;20018;-71
2022/11/24 02:29:18;;;;;;;9.52;2.70;;;;;;;7.24;100.00;100423.31;7383928;19;20637;-71
2022/11/24 02:31:52;;;;;;;7.38;2.75;;;;;;;7.16;100.00;100411.00;7382461;19;20102;-71
2022/11/24 02:34:23;;;;;;;11.50;3.67;;;;;;;7.19;100.00;100415.38;7384743;19;20546;-71
2022/11/24 02:36:53;;;;;;;5.82;2.20;;;;;;;7.28;100.00;100419.91;7378627;19;20372;-71
2022/11/24 02:39:23;;;;;;;9.68;2.67;;;;;;;7.30;100.00;100408.63;7381154;19;20094;-71
2022/11/24 02:42:00;;;;;;;6.35;2.30;;;;;;;7.27;100.00;100403.38;7380660;19;20359;-71
2022/11/24 02:44:39;;;;;;;6.40;1.70;;;;;;;7.23;100.00;100406.78;7382596;19;20119;-71
2022/11/24 02:47:13;;;;;;;5.80;1.88;;;;;;;7.25;100.00;100412.91;7377934;19;20496;-71
2022/11/24 02:49:43;;;;;;;3.30;1.45;;;;;;;7.22;100.00;100411.13;7375516;19;20538;-71
2022/11/24 02:52:12;;;;;;;6.72;1.92;;;;;;;7.20;100.00;100407.59;7377060;19;20015;-71
2022/11/24 02:54:42;;;;;;;5.88;2.05;;;;;;;7.27;100.00;100420.75;7376364;19;20013;-71
2022/11/24 02:57:14;;;;;;;7.60;1.80;;;;;;;7.30;100.00;100408.63;7376432;19;20035;-71
2022/11/24 02:59:45;;;;;;;2.55;1.40;;;;;;;7.35;100.00;100414.81;7378727;19;20025;-71
2022/11/24 03:02:15;;;;;;;1.30;1.05;;;;;;;7.48;100.00;100423.75;7373674;19;20349;-71
2022/11/24 03:04:46;;;;;;;1.15;1.05;;;;;;;7.44;100.00;100425.41;7377300;19;20356;-71
2022/11/24 03:07:16;;;;;;;2.58;1.00;;;;;;;7.44;100.00;100438.47;7379624;19;20019;-72
2022/11/24 03:09:46;;;;;;;3.72;1.30;;;;;;;7.44;100.00;100435.84;7376301;19;20017;-72
2022/11/24 03:12:18;;;;;;;3.83;1.52;;;;;;;7.42;100.00;100431.47;7377094;19;20019;-71
2022/11/24 03:14:48;;;;;;;2.78;1.90;;;;;;;7.39;100.00;100440.09;7379607;19;20786;-72
2022/11/24 03:17:18;;;;;;;3.50;1.70;;;;;;;7.38;100.00;100447.91;7378479;19;20045;-72
2022/11/24 03:19:48;;;;;;;3.47;1.42;;;;;;;7.37;100.00;100453.97;7376503;19;20231;-72
2022/11/24 03:22:18;;;;;;;5.68;1.50;;;;;;;7.28;100.00;100453.81;7374396;19;20014;-72
2022/11/24 03:24:47;;;;;;;3.13;1.48;;;;;;;7.34;100.00;100457.41;7378015;19;20018;-72
2022/11/24 03:27:19;;;;;;;10.13;2.72;;;;;;;7.29;100.00;100459.03;7372317;19;20296;-72
2022/11/24 03:29:49;;;;;;;6.93;2.47;;;;;;;7.33;100.00;100460.84;7377686;19;20024;-73
2022/11/24 03:32:18;;;;;;;7.97;2.40;;;;;;;7.31;100.00;100461.66;7376902;19;20521;-72
2022/11/24 03:34:48;;;;;;;12.43;2.85;;;;;;;7.35;100.00;100464.38;7378174;19;20014;-72
2022/11/24 03:37:18;;;;;;;14.15;3.33;;;;;;;7.35;100.00;100463.50;7374075;19;20089;-73
2022/11/24 03:39:48;;;;;;;13.05;3.10;;;;;;;7.36;100.00;100466.13;7372341;19;20527;-73
2022/11/24 03:42:21;;;;;;;9.82;2.78;;;;;;;7.36;100.00;100465.25;7379057;19;20082;-73
2022/11/24 03:44:51;;;;;;;14.10;3.83;;;;;;;7.38;100.00;100467.03;7376621;19;20014;-72
2022/11/24 03:47:20;;;;;;;10.60;3.40;;;;;;;7.42;100.00;100484.53;7371658;19;20015;-73
2022/11/24 03:49:52;;;;;;;15.30;2.92;;;;;;;7.38;100.00;100479.22;7376763;19;20467;-72
2022/11/24 03:52:25;;;;;;;10.25;3.30;;;;;;;7.41;100.00;100490.59;7372927;19;20018;-73
2022/11/24 03:54:57;;;;;;;9.38;3.03;;;;;;;7.46;100.00;100501.13;7371185;19;20789;-72
2022/11/24 03:57:29;;;;;;;16.90;3.40;;;;;;;7.44;100.00;100495.88;7375602;19;20018;-72
2022/11/24 04:00:00;;;;;;;15.77;3.50;;;;;;;7.45;100.00;100500.25;7377270;19;20376;-72
2022/11/24 04:02:30;;;;;;;10.35;3.33;;;;;;;7.42;100.00;100510.59;7371398;19;20604;-72
2022/11/24 04:05:01;;;;;;;10.48;4.25;;;;;;;7.41;100.00;100515.78;7374265;19;20194;-72
2022/11/24 04:07:30;;;;;;;13.50;3.67;;;;;;;7.36;100.00;100528.75;7372236;19;20027;-72
2022/11/24 04:10:00;;;;;;;11.10;2.80;;;;;;;7.27;100.00;100525.09;7370960;19;20014;-72
2022/11/24 04:12:44;;;;;;;7.15;2.25;;;;;;;7.15;100.00;100541.34;7368076;19;20018;-71
2022/11/24 04:15:16;;;;;;;8.98;3.03;;;;;;;7.13;100.00;100546.53;7371803;19;20021;-71
2022/11/24 04:17:45;;;;;;;4.47;2.25;;;;;;;7.03;100.00;100549.78;7375932;19;20011;-71
2022/11/24 04:20:15;;;;;;;2.90;1.63;;;;;;;6.94;100.00;100551.28;7374110;19;20015;-71
2022/11/24 04:22:45;;;;;;;3.15;1.40;;;;;;;6.90;100.00;100565.97;7375131;19;20026;-71
2022/11/24 04:25:16;;;;;;;5.40;1.55;;;;;;;6.77;100.00;100579.56;7373285;19;20097;-71
2022/11/24 04:27:53;;;;;;;4.07;1.30;;;;;;;6.71;100.00;100575.09;7373761;19;20771;-71
2022/11/24 04:30:25;;;;;;;2.35;1.38;;;;;;;6.62;100.00;100589.59;7372923;19;20017;-71
2022/11/24 04:32:55;;;;;;;8.43;2.08;;;;;;;6.63;100.00;100578.34;7372467;19;20420;-71
2022/11/24 04:35:25;;;;;;;6.00;1.70;;;;;;;6.56;100.00;100585.13;7372654;19;20021;-72
2022/11/24 04:37:55;;;;;;;5.70;2.00;;;;;;;6.46;100.00;100585.72;7372491;19;20483;-71
2022/11/24 04:40:25;;;;;;;7.32;1.92;;;;;;;6.49;100.00;100596.22;7373146;19;20014;-72
2022/11/24 04:42:58;;;;;;;3.67;1.70;;;;;;;6.47;100.00;100596.19;7377893;19;20011;-72
2022/11/24 04:45:28;;;;;;;7.03;2.75;;;;;;;6.40;100.00;100591.66;7373552;19;20021;-71
2022/11/24 04:47:57;;;;;;;7.50;2.55;;;;;;;6.37;100.00;100603.72;7369421;19;20018;-71
2022/11/24 04:50:27;;;;;;;5.47;1.77;;;;;;;6.34;100.00;100604.53;7374312;19;20014;-71
2022/11/24 04:52:57;;;;;;;4.05;1.38;;;;;;;6.35;100.00;100613.22;7371510;19;20002;-71
2022/11/24 04:55:27;;;;;;;5.82;1.52;;;;;;;6.32;100.00;100613.13;7375680;19;20015;-71
2022/11/24 04:57:59;;;;;;;5.18;1.50;;;;;;;6.27;100.00;100617.34;7376975;19;20010;-71
2022/11/24 05:00:29;;;;;;;3.20;1.17;;;;;;;6.26;100.00;100620.78;7378267;19;20424;-71
2022/11/24 05:02:59;;;;;;;3.67;1.70;;;;;;;6.21;100.00;100629.38;7373927;19;20007;-72
2022/11/24 05:05:28;;;;;;;4.28;1.90;;;;;;;6.21;100.00;100633.72;7378309;19;20015;-72
2022/11/24 05:08:00;;;;;;;4.25;1.48;;;;;;;6.21;100.00;100629.38;7377723;19;20447;-72
2022/11/24 05:10:39;;;;;;;2.65;1.35;;;;;;;6.21;100.00;100634.59;7375195;19;20095;-72
2022/11/24 05:13:13;;;;;;;5.05;1.48;;;;;;;6.24;100.00;100638.97;7378971;19;20339;-72
2022/11/24 05:15:43;;;;;;;2.75;1.55;;;;;;;6.21;100.00;100642.41;7376946;19;20037;-74
2022/11/24 05:18:15;;;;;;;3.50;1.35;;;;;;;6.28;100.00;100648.63;7375843;19;20019;-74
2022/11/24 05:20:46;;;;;;;4.60;1.15;;;;;;;6.27;100.00;100646.00;7376331;19;20022;-74
2022/11/24 05:23:16;;;;;;;4.10;1.35;;;;;;;6.29;100.00;100659.94;7380552;19;20022;-74
2022/11/24 05:25:45;;;;;;;4.13;3.35;;;;;;;6.30;100.00;100670.41;7373216;19;20014;-74
2022/11/24 05:28:20;;;;;;;4.47;1.77;;;;;;;6.36;100.00;100670.56;7371981;19;20015;-74
2022/11/24 05:30:50;;;;;;;4.95;1.88;;;;;;;6.41;100.00;100674.19;7371111;19;20078;-74
2022/11/24 05:33:21;;;;;;;3.80;1.85;;;;;;;6.48;100.00;100678.72;7374946;19;20017;-75
2022/11/24 05:35:51;;;;;;;6.43;2.20;;;;;;;6.45;100.00;100670.81;7374142;19;20029;-74
2022/11/24 05:38:22;;;;;;;7.78;2.30;;;;;;;6.54;100.00;100675.41;7370305;19;20015;-76
2022/11/24 05:40:53;;;;;;;4.25;1.90;;;;;;;6.53;100.00;100676.22;7381733;19;20018;-75
2022/11/24 05:43:25;;;;;;;4.68;2.10;;;;;;;6.52;100.00;100670.16;7383941;19;20018;-75
2022/11/24 05:45:55;;;;;;;6.57;2.20;;;;;;;6.53;100.00;100673.63;7379128;19;20026;-74
2022/11/24 05:48:24;;;;;;;4.43;1.92;;;;;;;6.58;100.00;100687.66;7385445;19;20011;-75
2022/11/24 05:50:56;;;;;;;5.88;3.13;;;;;;;6.54;100.00;100688.41;7381869;19;20011;-76
2022/11/24 05:53:26;;;;;;;4.65;2.47;;;;;;;6.57;100.00;100691.09;7378778;19;20014;-75
2022/11/24 05:55:56;;;;;;;11.60;2.97;;;;;;;6.56;100.00;100697.16;7379163;19;20483;-75
2022/11/24 05:58:28;;;;;;;5.55;2.53;;;;;;;6.52;100.00;100701.41;7380228;19;20023;-76
2022/11/24 06:00:58;;;;;;;7.90;4.00;;;;;;;6.54;100.00;100704.94;7377609;19;20013;-76
2022/11/24 06:03:27;;;;;;;10.75;3.40;;;;;;;6.53;100.00;100702.28;7382670;19;20021;-75
2022/11/24 06:06:00;;;;;;;6.03;3.30;;;;;;;6.50;100.00;100712.63;7375906;19;20119;-75
2022/11/24 06:08:29;;;;;;;6.55;3.25;;;;;;;6.49;100.00;100713.47;7380643;19;20090;-75
2022/11/24 06:11:15;;;;;;;10.43;3.95;;;;;;;6.48;100.00;100723.00;7376697;19;20026;-75
2022/11/24 06:13:50;;;;;;;9.90;3.60;;;;;;;6.39;100.00;100740.09;7379833;19;20014;-75
2022/11/24 06:16:20;;;;;;;8.73;3.53;;;;;;;6.36;100.00;100738.28;7379667;19;20006;-75
2022/11/24 06:18:50;;;;;;;11.90;3.90;;;;;;;6.35;100.00;100744.34;7381515;19;20011;-75
2022/11/24 06:21:20;;;;;;;10.88;3.30;;;;;;;6.43;100.00;100737.63;7379185;19;20003;-75
2022/11/24 06:23:50;;;;;;;9.50;3.63;;;;;;;6.40;100.00;100737.53;7378565;19;20026;-76
2022/11/24 06:26:20;;;;;;;6.57;3.65;;;;;;;6.36;100.00;100748.72;7373746;19;20589;-76
2022/11/24 06:28:52;;;;;;;9.10;3.22;;;;;;;6.41;100.00;100754.06;7379710;19;20013;-75
2022/11/24 06:31:23;;;;;;;8.02;3.03;;;;;;;6.43;100.00;100753.25;7378130;19;20014;-76
2022/11/24 06:33:53;;;;;;;8.60;3.55;;;;;;;6.41;100.00;100759.25;7382656;19;20010;-75
2022/11/24 06:36:24;;;;;;;11.80;3.95;;;;;;;6.46;100.00;100755.06;7383051;19;20037;-76
2022/11/24 06:38:54;;;;;;;8.60;3.42;;;;;;;6.44;100.00;100765.44;7375870;19;20506;-75
2022/11/24 06:41:24;;;;;;;9.38;4.13;;;;;;;6.39;100.00;100771.34;7380406;19;20107;-75
2022/11/24 06:43:56;;;;;;;7.80;3.60;;;;;;;6.39;100.00;100771.34;7382388;19;20010;-75
2022/11/24 06:46:26;;;;;;;7.50;3.35;;;;;;;6.40;100.00;100783.53;7377569;19;20035;-75
2022/11/24 06:48:58;;;;;;;9.90;3.88;;;;;;;6.39;100.00;100787.88;7377952;19;20014;-75
2022/11/24 06:51:28;;;;;;;10.70;3.83;;;;;;;6.41;100.00;100795.72;7376627;19;20045;-75
2022/11/24 06:53:58;;;;;;;12.88;4.10;;;;;;;6.46;100.00;100804.56;7373169;19;20027;-75
2022/11/24 06:56:27;;;;;;;9.45;3.42;;;;;;;6.49;100.00;100805.53;7379005;19;20013;-73
2022/11/24 06:58:59;;;;;;;8.38;4.55;;;;;;;6.47;100.00;100808.94;7374529;19;20002;-73
2022/11/24 07:01:31;;;;;;;7.65;3.65;;;;;;;6.54;100.00;100810.88;7379067;19;20010;-74
2022/11/24 07:04:01;;;;;;;10.25;3.85;;;;;;;6.56;100.00;100817.03;7375686;19;20444;-74
2022/11/24 07:06:31;;;;;;;7.65;3.92;;;;;;;6.52;100.00;100825.59;7374560;19;20133;-74
2022/11/24 07:09:00;;;;;;;9.52;4.00;;;;;;;6.59;100.00;100822.31;7372042;19;20018;-73
2022/11/24 07:11:30;;;;;;;11.70;4.13;;;;;;;6.58;100.00;100825.78;7375875;19;20395;-73
2022/11/24 07:14:02;;;;;;;14.82;4.00;;;;;;;6.58;100.00;100830.97;7375515;19;20038;-73
2022/11/24 07:16:33;;;;;;;10.27;3.92;;;;;;;6.61;100.00;100828.47;7379159;19;20025;-74
2022/11/24 07:19:03;;;;;;;13.15;4.05;;;;;;;6.63;100.00;100839.81;7375909;19;20017;-74
2022/11/24 07:21:32;;;;;;;11.98;4.50;;;;;;;6.63;100.00;100845.03;7377975;19;20478;-74
2022/11/24 07:24:02;;;;;;;14.75;5.28;;;;;;;6.64;100.00;100851.13;7372596;19;20011;-74
2022/11/24 07:26:36;;;;;;;11.48;4.85;;;;;;;6.66;100.00;100860.75;7375027;19;20379;-74
2022/11/24 07:29:08;;;;;;;11.00;4.28;;;;;;;6.66;100.00;100865.06;7372895;19;20040;-74
2022/11/24 07:31:38;;;;;;;13.93;4.70;;;;;;;6.64;100.00;100866.75;7370578;19;20010;-75
2022/11/24 07:34:08;;;;;;;12.85;3.83;;;;;;;6.61;100.00;100872.75;7378113;19;20013;-75
2022/11/24 07:36:38;;;;;;;10.15;3.90;;;;;;;6.58;100.00;100872.66;7378771;19;20011;-75
2022/11/24 07:39:08;;;;;;;8.57;3.50;;;;;;;6.49;100.00;100872.38;7376055;19;20025;-75
2022/11/24 07:41:37;;;;;;;10.68;4.07;;;;;;;6.42;100.00;100875.66;7380347;19;20027;-75
2022/11/24 07:44:10;;;;;;;13.15;3.90;;;;;;;6.46;100.00;100877.50;7378622;19;20026;-75
2022/11/24 07:46:39;;;;;;;11.27;4.65;;;;;;;6.40;100.00;100887.75;7378570;19;20074;-75
2022/11/24 07:49:09;;;;;;;8.15;3.42;;;;;;;6.36;100.00;100901.50;7379307;19;20015;-75
2022/11/24 07:51:38;;;;;;;8.93;3.53;;;;;;;6.39;100.00;100905.09;7378012;19;20463;-75
2022/11/24 07:54:08;;;;;;;13.30;4.10;;;;;;;6.34;100.00;100903.19;7370213;19;20463;-75
2022/11/24 07:56:38;;;;;;;13.77;3.97;;;;;;;6.37;100.00;100909.38;7375733;19;20042;-75
2022/11/24 07:59:10;;;;;;;11.82;3.78;;;;;;;6.34;100.00;100908.41;7374010;19;20036;-75
2022/11/24 08:01:40;;;;;;;7.93;3.20;;;;;;;6.32;100.00;100912.66;7374730;19;20011;-77
2022/11/24 08:04:10;;;;;;;11.35;4.70;;;;;;;6.31;100.00;100919.59;7373604;19;20033;-75
2022/11/24 08:06:40;;;;;;;9.50;3.80;;;;;;;6.30;100.00;100923.03;7374530;19;20269;-76
2022/11/24 08:09:15;;;;;;;9.60;3.20;;;;;;;6.30;100.00;100932.56;7375205;19;20014;-75
2022/11/24 08:11:45;;;;;;;9.05;3.17;;;;;;;6.34;100.00;100929.22;7371730;19;20019;-75
2022/11/24 08:14:17;;;;;;;9.32;3.40;;;;;;;6.41;100.00;100925.97;7371101;19;20066;-75
2022/11/24 08:16:47;;;;;;;10.32;3.08;;;;;;;6.45;100.00;100933.94;7372930;19;20022;-75
2022/11/24 08:19:17;;;;;;;11.57;3.55;;;;;;;6.48;100.00;100941.84;7371175;19;20007;-75
2022/11/24 08:21:47;;;;;;;10.20;3.30;;;;;;;6.53;100.00;100945.50;7371625;19;20010;-76
2022/11/24 08:24:16;;;;;;;15.75;3.55;;;;;;;6.53;100.00;100944.59;7371906;19;20399;-75
2022/11/24 08:26:46;;;;;;;10.18;3.33;;;;;;;6.56;100.00;100947.31;7372461;19;20011;-75
2022/11/24 08:29:19;;;;;;;13.88;3.78;;;;;;;6.64;100.00;100951.03;7370407;19;20054;-76
2022/11/24 08:31:49;;;;;;;10.63;3.50;;;;;;;6.64;100.00;100955.34;7372492;19;20017;-76
2022/11/24 08:34:18;;;;;;;10.98;3.30;;;;;;;6.65;100.00;100951.91;7373294;19;20281;-76
2022/11/24 08:36:49;;;;;;;16.02;3.45;;;;;;;6.71;100.00;100958.19;7367887;19;20051;-76
2022/11/24 08:39:19;;;;;;;11.13;3.35;;;;;;;6.77;100.00;100957.50;7369889;19;20018;-76
2022/11/24 08:41:50;;;;;;;12.85;3.35;;;;;;;6.82;100.00;100967.25;7371790;19;20011;-75
2022/11/24 08:44:23;;;;;;;10.65;3.50;;;;;;;6.97;100.00;100965.94;7371808;19;20352;-75
2022/11/24 08:46:55;;;;;;;16.25;3.50;;;;;;;7.00;100.00;100968.63;7373705;19;20025;-75
2022/11/24 08:49:25;;;;;;;11.43;3.38;;;;;;;7.05;100.00;100978.34;7373331;19;20094;-76
2022/11/24 08:51:55;;;;;;;11.15;3.75;;;;;;;7.10;100.00;100983.72;7376741;19;20074;-76
2022/11/24 08:54:24;;;;;;;15.35;3.35;;;;;;;7.10;100.00;100973.28;7371334;19;20019;-75
2022/11/24 08:56:54;;;;;;;16.10;4.22;;;;;;;7.23;100.00;100985.84;7374661;19;20014;-75
2022/11/24 08:59:26;;;;;;;15.32;3.90;;;;;;;7.30;100.00;100981.66;7377575;19;20018;-75
2022/11/24 09:01:56;;;;;;;8.45;2.83;;;;;;;7.32;100.00;100991.28;7376190;19;20479;-75
2022/11/24 09:04:25;;;;;;;11.45;3.70;;;;;;;7.37;100.00;100999.25;7378435;19;20601;-75
2022/11/24 09:06:55;;;;;;;11.70;3.28;;;;;;;7.33;100.00;100998.28;7377322;19;20045;-75
2022/11/24 09:09:25;;;;;;;17.50;3.90;;;;;;;7.36;100.00;101005.31;7376788;19;20022;-75
2022/11/24 09:11:54;;;;;;;15.57;3.50;;;;;;;7.35;100.00;101007.03;7377367;19;20412;-75
2022/11/24 09:14:27;;;;;;;9.65;2.80;;;;;;;7.47;100.00;101012.59;7385042;19;20021;-75
2022/11/24 09:16:56;;;;;;;19.60;3.15;;;;;;;7.52;100.00;101011.00;7389952;19;20018;-75
2022/11/24 09:19:26;;;;;;;12.95;3.30;;;;;;;7.51;100.00;101018.78;7388935;19;20014;-74
2022/11/24 09:21:56;;;;;;;13.40;2.92;;;;;;;7.54;100.00;101019.75;7389378;19;20086;-75
2022/11/24 09:24:26;;;;;;;11.30;2.95;;;;;;;7.57;100.00;101031.13;7390141;19;20443;-75
2022/11/24 09:26:56;;;;;;;11.40;3.67;;;;;;;7.61;100.00;101043.44;7390194;19;20365;-75
2022/11/24 09:29:28;;;;;;;12.50;3.08;;;;;;;7.63;100.00;101044.34;7392505;19;20567;-75
2022/11/24 09:31:57;;;;;;;9.32;2.58;;;;;;;7.68;100.00;101047.97;7390632;19;20611;-75
2022/11/24 09:34:34;;;;;;;13.38;2.75;;;;;;;7.70;100.00;101051.50;7389945;19;20007;-76
2022/11/24 09:37:04;;;;;;;10.40;3.03;;;;;;;7.72;100.00;101060.28;7385048;19;20021;-74
2022/11/24 09:39:34;;;;;;;11.25;2.85;;;;;;;7.74;100.00;101050.75;7387487;19;20029;-75
2022/11/24 09:42:15;;;;;;;13.65;2.83;;;;;;;7.80;100.00;101066.59;7389729;19;20066;-75
2022/11/24 09:45:11;;;;;;;10.98;2.88;;;;;;;7.79;100.00;101059.59;7390345;19;20019;-75
2022/11/24 09:47:50;;;;;;;13.48;3.03;;;;;;;7.86;100.00;101077.22;7392592;19;20010;-74
2022/11/24 09:50:24;;;;;;;10.93;2.67;;;;;;;7.90;100.00;101083.41;7390940;19;20050;-74
2022/11/24 09:53:02;;;;;;;17.90;3.25;;;;;;;7.94;100.00;101087.88;7388976;19;20369;-74
2022/11/24 09:55:39;;;;;;;11.95;3.22;;;;;;;7.99;100.00;101089.78;7387626;19;20038;-74
2022/11/24 09:58:19;;;;;;;15.55;3.00;;;;;;;8.02;100.00;101087.25;7383473;19;20403;-74
2022/11/24 10:00:54;;;;;;;9.15;3.00;;;;;;;8.07;100.00;101095.22;7381694;19;20010;-75
2022/11/24 10:03:31;;;;;;;14.30;3.10;;;;;;;8.20;100.00;101095.59;7381272;19;20014;-75
2022/11/24 10:06:05;;;;;;;12.13;3.30;;;;;;;8.28;100.00;101101.00;7381212;19;20014;-74
2022/11/24 10:08:50;;;;;;;17.55;3.88;;;;;;;8.31;100.00;101094.97;7381065;19;20026;-74
2022/11/24 10:11:33;;;;;;;12.35;3.83;;;;;;;8.39;100.00;101098.69;7381908;19;20006;-74
2022/11/24 10:14:25;;;;;;;13.30;3.22;;;;;;;8.35;100.00;101108.16;7386258;19;20011;-74
2022/11/24 10:17:10;;;;;;;14.52;3.50;;;;;;;8.39;100.00;101114.38;7387710;19;20081;-74
2022/11/24 10:19:48;;;;;;;13.82;3.20;;;;;;;8.46;100.00;101111.06;7386267;19;20033;-74
2022/11/24 10:22:32;;;;;;;12.90;3.15;;;;;;;8.47;100.00;101103.25;7381691;19;20494;-74
2022/11/24 10:25:23;;;;;;;12.45;3.63;;;;;;;8.56;100.00;101100.00;7378738;19;20011;-74
2022/11/24 10:27:58;;;;;;;15.25;3.33;;;;;;;8.63;100.00;101109.78;7377028;19;20482;-74
2022/11/24 10:30:28;;;;;;;12.20;3.47;;;;;;;8.66;100.00;101104.63;7374823;19;20031;-73
2022/11/24 10:33:05;;;;;;;14.70;3.45;;;;;;;8.68;100.00;101107.28;7372873;19;20043;-73
2022/11/24 10:35:39;;;;;;;14.05;3.25;;;;;;;8.71;100.00;101112.59;7377493;19;20014;-73
2022/11/24 10:38:25;;;;;;;18.73;3.55;;;;;;;8.76;100.00;101111.84;7374675;19;20055;-73
2022/11/24 10:41:00;;;;;;;14.23;3.25;;;;;;;8.72;100.00;101119.59;7374281;19;20108;-73
2022/11/24 10:43:30;;;;;;;16.25;3.58;;;;;;;8.82;100.00;101119.84;7377381;19;20044;-74
2022/11/24 10:46:06;;;;;;;12.95;3.17;;;;;;;8.84;100.00;101125.13;7382477;19;20013;-74
2022/11/24 10:48:47;;;;;;;13.13;3.60;;;;;;;8.84;100.00;101126.00;7380726;19;20035;-74
2022/11/24 10:51:49;;;;;;;16.27;5.15;;;;;;;8.90;100.00;101122.66;7377855;19;20007;-74
2022/11/24 10:54:21;;;;;;;13.70;3.55;;;;;;;8.95;100.00;101123.66;7377457;19;20098;-74
2022/11/24 10:56:53;;;;;;;14.05;3.97;;;;;;;8.99;100.00;101119.38;7382742;19;20682;-74
2022/11/24 10:59:36;;;;;;;14.98;3.90;;;;;;;9.09;100.00;101121.38;7383550;19;20018;-74
2022/11/24 11:02:31;;;;;;;10.13;3.57;;;;;;;9.16;100.00;101113.69;7380956;19;20372;-76
2022/11/24 11:05:28;;;;;;;22.02;4.43;;;;;;;9.22;100.00;101118.19;7381412;19;20619;-76
2022/11/24 11:08:18;;;;;;;13.13;3.08;;;;;;;9.29;100.00;101109.63;7381621;19;20085;-76
2022/11/24 11:10:50;;;;;;;14.77;4.43;;;;;;;9.32;100.00;101111.44;7383795;19;20515;-76
2022/11/24 11:13:25;;;;;;;17.27;4.22;;;;;;;9.36;100.00;101116.75;7378918;19;20007;-76
2022/11/24 11:15:56;;;;;;;14.73;3.53;;;;;;;9.39;100.00;101121.16;7378206;19;20028;-76
2022/11/24 11:18:32;;;;;;;10.32;3.10;;;;;;;9.39;100.00;101121.16;7376383;19;20558;-76
2022/11/24 11:21:06;;;;;;;11.88;3.63;;;;;;;9.41;100.00;101112.50;7375307;19;20086;-75
2022/11/24 11:23:38;;;;;;;18.90;4.22;;;;;;;9.48;100.00;101106.53;7375506;19;20021;-75
2022/11/24 11:26:32;;;;;;;13.30;4.10;;;;;;;9.47;100.00;101115.25;7375342;19;20014;-75
2022/11/24 11:29:04;;;;;;;16.63;3.58;;;;;;;9.61;100.00;101114.66;7379464;19;20014;-76
2022/11/24 11:32:03;;;;;;;15.50;4.38;;;;;;;9.47;100.00;101130.94;7381818;19;20018;-76
2022/11/24 11:34:54;;;;;;;13.52;4.35;;;;;;;9.59;100.00;101113.75;7381638;19;20014;-76
2022/11/24 11:37:30;;;;;;;13.05;3.60;;;;;;;9.67;100.00;101109.56;7382683;19;20021;-74
2022/11/24 11:40:00;;;;;;;12.30;4.05;;;;;;;9.74;100.00;101111.44;7377054;19;20021;-74
2022/11/24 11:42:40;;;;;;;16.17;3.88;;;;;;;9.85;100.00;101117.78;7380888;19;20015;-75
2022/11/24 11:45:36;;;;;;;14.75;4.10;;;;;;;9.98;100.00;101114.56;7379807;19;20014;-75
2022/11/24 11:48:26;;;;;;;15.52;3.75;;;;;;;9.97;100.00;101119.78;7380246;19;20479;-74